Relevés horaires Matro (Suisse)


Relevés horaires à Matro - Dimanche 15 Mai 2022
Heure UTC1 Température [°C] Vent [km/h] Hum. [%] Pres.4 [hPa] Visi. [Km] Nébu. [octa] Préc.5 [mm] Cond.
2m. Res. Ros. Dir.2 Vit. Moy. Raf.3
23:00 8.6 5.8 6.2 SE 18.5 -- 20.4 85 850(-0.1/3h) -- -- -- --
22:00 8.6 6.5 6.5 SE 13.0 -- 18.5 87 850(0.3/3h) -- -- -- --
21:00 9.0 7.2 5.4 SE 11.1 -- 50.0 78 850(0.8/3h) -- -- -- --
20:00 8.8 6.7 6.7 ESE 13.0 -- 25.9 87 850(0.9/3h) -- -- -- --
19:00 8.6 5.2 7.0 SSE 24.1 -- 50.0 90 850(0.7/3h) -- -- -- --
18:00 8.3 3.7 8.2 S 40.7 -- 55.6 99 850(-0.1/3h) -- -- -- --
17:00 9.4 6.1 7.4 SSE 25.9 -- 42.6 87 850(-0.1/3h) -- -- -- --
16:00 9.8 6.5 7.5 SSE 27.8 -- 40.7 86 850(-0.6/3h) -- -- -- --
15:00 12.3 11.2 7.5 SSE 11.1 -- 31.5 72 850(-0.5/3h) -- -- -- --
14:00 13.1 12.4 7.6 SSE 9.3 -- 20.4 69 850(-0.6/3h) -- -- -- --
13:00 13.1 12.4 7.0 SSE 9.3 -- 31.5 66 850(-0.3/3h) -- -- -- --
12:00 11.4 9.5 6.3 S 16.7 -- 27.8 71 850(0.0/3h) -- -- -- --
11:00 11.0 10.3 6.2 SSE 7.4 -- 20.4 72 850(0.3/3h) -- -- -- --
10:00 10.6 10.3 7.4 ESE 5.6 -- 16.7 81 850(0.3/3h) -- -- -- --
09:00 9.7 9.7 5.8 SE 3.7 -- 14.8 77 850(0.2/3h) -- -- -- --
08:00 8.6 8.6 7.9 ESE 3.7 -- 9.3 95 850(0.2/3h) -- -- -- --
07:00 8.4 8.4 5.8 N 3.7 -- 9.3 84 850(0.3/3h) -- -- -- --
06:00 7.7 7.7 7.5 E 1.9 -- 16.7 99 850(0.1/3h) -- -- -- --
05:00 7.7 6.9 5.0 SE 5.6 -- 7.4 83 850(0.0/3h) -- -- -- --
04:00 7.3 6.5 5.4 ESE 5.6 -- 13.0 88 850(-0.4/3h) -- -- -- --
03:00 7.3 6 5.8 ESE 7.4 -- 16.7 90 850(-0.5/3h) -- -- -- --
02:00 7.3 4.9 6.1 SSE 13.0 -- 14.8 92 850(-0.6/3h) -- -- -- --
01:00 8.0 8.0 4.9 O 3.7 -- 16.7 81 850(-0.4/3h) -- -- -- --
00:00 7.3 4.9 6.5 S 13.0 -- 33.3 95 850(-0.4/3h) -- -- -- --

1 Coordinated Universal Time. Actuellement il est 06:00 locale et 04:00 UTC.

2 Le vent souffle depuis la direction indiquée vers la direction oposée.

3 Les rafales max. sont disponible 40 min après l'heure du relevé.

4 Pour les stations d'altitude (plus de 600m) le géopotentiel du niveau le plus proche de la pression obligatoire est indiqué.

5 Les stations disposant d'un diffuseur peuvent indiquer "trace". Cela signifie que des précipitations ont touchés le sol mais que la quantité est inférieure à 0.1 mm.

Copyright

Les données affichées sur cette page sont la propriété exclusive de Météo Suisse.

Récapitulatif de la journée
Température [°C] Vent [km/h] Ensoleillement4 [h] Precipitations totale5 [mm] Pression [Hpa]
Min1 Max.2 Moy.3 Max. Min Max.
6.9 14.0 0 55.6 6 h 18 min 0 850.0 850.0

1 Température minimale relevée entre 18:00 UTC la veille et 18:00 UTC le jour donné.

2 Température maximale relevée entre 06:00 UTC le jour donné et 06:00 UTC le lendemain.

3 Vent moyen de la journée basé sur les relevés horaires.

4 Ensoleillement en heures relevé entre 06:00 UTC la veille et 06:00 UTC le jour donné.

5 Précipitations totales tombées entre 06:00 UTC la jour donné et 06:00 UTC le lendemain.

Graphiques horaires